• Join FlightAware (Why Join?)
  • Login
  • US Flag 
01:57PM EDT


 

Airport Tracker/Info


-or-


 

Live Flight TrackerFlight Track Log ✈ ASQ6177 ✈ 24-May-2013 ✈ KCVG - KORD

Flight Track Log - Related Links

Times and Time Zones

All times are in EDT time to prevent confusion due to time zone crossing. See the ASQ6177 flight status page for this flight to view local times or setup timezone preferences in your user account.

Time Position Orientation Groundspeed Altitude Reporting Facility
EDT Latitude Longitude Course Direction KTS MPH feet Rate Location/Type
07:20PM 39.0500 -84.7000 351° North 177 204 1,500  Level Cincinnati TRACON
07:21PM 39.0667 -84.7333 303° West 193 222 3,000 2,580 Climbing Cincinnati TRACON
07:22PM 39.1714 -84.7997 334° Northwest 225 259 8,200 2,760 Climbing Indianapolis Center
07:24PM 39.0080 -84.8804 345° North  Level FlightAware Approximate
07:24PM 39.2347 -84.8353 337° Northwest 241 277 10,800  Level Indianapolis Center
07:25PM 39.0963 -84.8992 351° North  Level FlightAware Approximate
07:25PM 39.3042 -84.8775 335° Northwest 266 306 11,900  Level Indianapolis Center
07:26PM 39.3894 -84.9344 333° Northwest 320 368 13,100 1,380 Climbing Indianapolis Center
07:27PM 39.4739 -84.9903 333° Northwest 337 388 14,800 1,500 Climbing Indianapolis Center
07:28PM 39.5575 -85.0461 333° Northwest 339 390 16,300 1,980 Climbing Indianapolis Center
07:29PM 39.6556 -85.1094 334° Northwest 332 382 18,900 1,860 Climbing Indianapolis Center
07:30PM 39.7344 -85.1642 332° Northwest 324 373 20,200 1,440 Climbing Indianapolis Center
07:31PM 39.8178 -85.2194 333° Northwest 334 384 21,900 840 Climbing Indianapolis Center
07:32PM 39.9011 -85.2756 333° Northwest 337 388 22,000  Climbing Indianapolis Center
07:33PM 39.9850 -85.3317 333° Northwest 340 391 22,000  Level Indianapolis Center
07:34PM 40.0675 -85.3875 333° Northwest 338 389 22,000  Level Indianapolis Center
07:35PM 40.1664 -85.4556 332° Northwest 336 387 22,000  Level Indianapolis Center
07:37PM 40.3197 -85.5928 326° Northwest 350 403 22,000  Level Indianapolis Center
07:37PM 40.3456 -85.6289 313° West 354 407 22,000  Level Chicago Center
07:38PM 40.3864 -85.6903 311° West 361 415 22,000  Level Indianapolis Center
07:38PM 40.4139 -85.7306 312° West 369 425 22,000  Level Chicago Center
07:39PM 40.4828 -85.8331 311° West 375 432 22,000  Level Chicago Center
07:40PM 40.5647 -85.9581 311° West 377 434 22,000  Level Chicago Center
07:41PM 40.6319 -86.0600 311° West 373 429 22,000  Level Chicago Center
07:43PM 40.6928 -86.1536 311° West 371 427 22,000  Level Chicago Center
07:44PM 40.7622 -86.2581 311° West 375 432 22,000  Level Chicago Center
07:45PM 40.8422 -86.3836 310° West 374 430 22,000  Level Chicago Center
07:46PM 40.9089 -86.4850 311° West 369 425 22,000  Level Chicago Center
07:47PM 40.9769 -86.5878 311° West 369 425 22,000  Level Chicago Center
07:48PM 41.0433 -86.6906 311° West 368 423 22,000 -600 Level Chicago Center
07:49PM 41.1083 -86.7922 310° West 370 426 20,800 -1,500 Descending Chicago Center
07:50PM 41.1889 -86.9169 311° West 372 428 19,000 -1,620 Descending Chicago Center
07:51PM 41.2539 -87.0197 310° West 366 421 17,500 -1,740 Descending Chicago Center
07:52PM 41.3175 -87.1197 310° West 359 413 15,500 -1,980 Descending Chicago Center
07:53PM 41.3789 -87.2122 312° West 341 392 13,500 -2,040 Descending Chicago Center
07:54PM 41.4617 -87.3089 319° Northwest 334 384 11,300 -1,260 Descending Chicago Center
07:55PM 41.5297 -87.3881 319° Northwest 328 377 11,000 -180 Descending Chicago Center
07:56PM 41.5969 -87.4625 320° Northwest 320 368 11,000 -420 Level Chicago Center
07:57PM 41.6631 -87.5344 321° Northwest 308 354 10,200 -900 Descending Chicago Center
07:58PM 41.7189 -87.5981 320° Northwest 273 314 9,200 -600 Descending Chicago Center
07:59PM 41.7858 -87.6736 320° Northwest 265 305 9,000 -120 Descending Chicago Center
08:00PM 41.8397 -87.7383 318° Northwest 263 303 9,000  Level Chicago Center
08:01PM 41.8825 -87.8197 305° West 274 315 9,000  Level Chicago Center
08:02PM 41.8833 -87.9000 271° West 294 338 9,000  Level Chicago TRACON
08:03PM 41.8833 -88.0167 270° West 295 339 9,000  Level Chicago TRACON
08:04PM 41.8833 -88.1167 270° West 259 298 9,000 -180 Level Chicago TRACON
08:04PM 41.8839 -88.1469 271° West 270 311 8,800 -1,080 Descending Chicago Center
08:05PM 41.8839 -88.2292 270° West 229 264 7,500 -1,200 Descending Chicago Center
08:06PM 41.8828 -88.3133 269° West 228 262 6,400 -780 Descending Chicago Center
08:07PM 41.9231 -88.3561 322° Northwest 237 273 5,900 -720 Descending Chicago Center
08:08PM 41.9633 -88.2864 52° Northeast 212 244 5,000 -540 Descending Chicago Center
08:09PM 41.9681 -88.2167 85° East 196 226 4,900 -120 Descending Chicago Center